Time;durP1;ratioP1;P1;durP2;ratioP2;P2;SDS_P1;SDS_P2;PMS_P1;PMS_P2;Temp;Humidity;BMP_temperature;BMP_pressure;BME280_temperature;BME280_humidity;BME280_pressure;Samples;Min_cycle;Max_cycle;Signal;HPM_P1;HPM_P2
2022/06/04 00:00:55;;;;;;;4.60;4.20;;;16.60;34.00;;;;;;2612261;54;21064;-76
2022/06/04 00:03:21;;;;;;;5.50;4.87;;;16.60;35.40;;;;;;2609366;54;20654;-76
2022/06/04 00:05:52;;;;;;;6.40;4.37;;;16.40;37.60;;;;;;2610659;39;21259;-74
2022/06/04 00:08:18;;;;;;;6.67;3.93;;;16.40;38.20;;;;;;2609819;54;20436;-74
2022/06/04 00:16:20;;;;;;;5.00;4.47;;;16.30;40.90;;;;;;2612433;54;20441;-78
2022/06/04 00:18:46;;;;;;;8.43;4.60;;;16.30;41.30;;;;;;2612425;54;20397;-78
2022/06/04 00:21:13;;;;;;;5.77;4.33;;;16.30;42.90;;;;;;2612095;54;20416;-78
2022/06/04 00:23:39;;;;;;;6.53;4.10;;;16.10;45.00;;;;;;2611210;54;20422;-78
2022/06/04 00:26:07;;;;;;;6.33;4.60;;;16.10;48.00;;;;;;2610730;54;20445;-74
2022/06/04 00:28:33;;;;;;;5.00;4.60;;;15.90;51.40;;;;;;2611418;54;20787;-75
2022/06/04 00:30:59;;;;;;;4.80;4.40;;;16.00;52.60;;;;;;2611762;54;20579;-78
2022/06/04 00:33:25;;;;;;;5.53;5.13;;;15.90;53.30;;;;;;2612399;47;20801;-79
2022/06/04 00:35:54;;;;;;;6.03;4.97;;;15.90;54.60;;;;;;2611320;39;20645;-74
2022/06/04 00:38:23;;;;;;;5.20;4.80;;;15.90;57.80;;;;;;2610157;54;20470;-74
2022/06/04 00:40:49;;;;;;;5.57;5.07;;;15.90;57.00;;;;;;2611329;54;20423;-75
2022/06/04 00:43:15;;;;;;;6.23;4.63;;;15.90;56.90;;;;;;2610322;54;20518;-75
2022/06/04 00:46:29;;;;;;;5.53;5.03;;;15.80;59.40;;;;;;2611317;47;20193;-76
2022/06/04 00:48:55;;;;;;;6.40;5.43;;;15.70;65.00;;;;;;2609007;47;20434;-76
2022/06/04 00:51:23;;;;;;;4.80;4.40;;;15.60;69.70;;;;;;2611793;54;20427;-77
2022/06/04 00:53:49;;;;;;;6.23;5.50;;;15.60;73.60;;;;;;2611720;39;20605;-77
2022/06/04 00:56:41;;;;;;;6.67;6.03;;;15.50;76.50;;;;;;2610492;54;20434;-79
2022/06/04 00:59:18;;;;;;;6.30;5.70;;;15.50;79.00;;;;;;2610165;54;20428;-79
2022/06/04 01:02:02;;;;;;;5.80;5.30;;;15.50;81.90;;;;;;2610899;54;21005;-77
2022/06/04 01:04:47;;;;;;;8.13;6.10;;;15.40;85.60;;;;;;2610865;54;20426;-78
2022/06/04 01:07:36;;;;;;;6.23;5.73;;;15.40;87.40;;;;;;2612774;54;20415;-82
2022/06/04 01:10:38;;;;;;;6.23;5.73;;;15.40;90.20;;;;;;2614605;54;20420;-81
2022/06/04 01:13:27;;;;;;;6.80;4.90;;;15.40;91.10;;;;;;2609059;54;20442;-74
2022/06/04 01:16:11;;;;;;;6.80;5.63;;;15.40;91.80;;;;;;2610234;39;20990;-80
2022/06/04 01:18:46;;;;;;;9.73;6.30;;;15.40;93.20;;;;;;2610040;54;20419;-80
2022/06/04 01:21:36;;;;;;;6.33;5.73;;;15.30;94.90;;;;;;2609876;54;20511;-76
2022/06/04 01:24:13;;;;;;;6.77;6.03;;;15.30;96.40;;;;;;2607564;54;20420;-75
2022/06/04 01:26:42;;;;;;;6.73;6.13;;;15.20;98.40;;;;;;2611767;54;20426;-80
2022/06/04 01:29:12;;;;;;;7.83;6.17;;;15.30;98.20;;;;;;2612685;47;20435;-80
2022/06/04 01:31:55;;;;;;;6.60;5.37;;;15.20;98.40;;;;;;2613343;54;20424;-81
2022/06/04 01:34:29;;;;;;;6.90;6.33;;;15.20;99.90;;;;;;2611682;47;20423;-81
2022/06/04 01:37:08;;;;;;;6.23;5.73;;;15.10;99.90;;;;;;2610940;54;20445;-78
2022/06/04 01:42:27;;;;;;;6.23;5.70;;;15.20;99.90;;;;;;2606824;54;20569;-74
2022/06/04 01:44:55;;;;;;;7.07;6.50;;;15.10;99.90;;;;;;2608336;47;20599;-74
2022/06/04 01:47:22;;;;;;;6.90;5.40;;;15.00;99.90;;;;;;2611019;47;20440;-75
2022/06/04 01:49:54;;;;;;;6.40;5.90;;;15.00;99.90;;;;;;2610741;54;20489;-75
2022/06/04 01:52:33;;;;;;;8.57;6.60;;;14.90;99.90;;;;;;2609507;54;20420;-74
2022/06/04 01:55:18;;;;;;;12.70;6.20;;;15.00;99.90;;;;;;2609643;54;20446;-73
2022/06/04 01:58:06;;;;;;;9.97;6.20;;;15.00;99.90;;;;;;2609631;54;20458;-73
2022/06/04 02:00:44;;;;;;;7.00;6.40;;;15.00;99.90;;;;;;2611080;47;20440;-74
2022/06/04 02:03:24;;;;;;;8.03;5.43;;;15.00;99.90;;;;;;2611481;54;21014;-74
2022/06/04 02:05:56;;;;;;;6.83;6.23;;;15.00;99.90;;;;;;2612215;39;21204;-76
2022/06/04 02:08:59;;;;;;;8.97;6.23;;;14.90;99.90;;;;;;2611965;31;20885;-76
2022/06/04 02:11:27;;;;;;;6.70;6.00;;;14.90;99.90;;;;;;2610277;54;21080;-74
2022/06/04 02:13:58;;;;;;;7.60;6.80;;;14.80;99.90;;;;;;2610167;47;20436;-73
2022/06/04 02:16:33;;;;;;;9.23;6.40;;;14.90;99.90;;;;;;2612008;54;20423;-81
2022/06/04 02:19:00;;;;;;;7.13;5.77;;;15.00;99.90;;;;;;2614311;39;20905;-81
2022/06/04 02:21:27;;;;;;;5.77;5.27;;;14.90;99.90;;;;;;2614296;54;20427;-78
2022/06/04 02:23:55;;;;;;;9.73;6.67;;;14.90;99.90;;;;;;2611542;54;20423;-78
2022/06/04 02:26:23;;;;;;;6.67;6.07;;;14.80;99.90;;;;;;2611946;54;20455;-73
2022/06/04 02:28:50;;;;;;;6.77;6.17;;;14.80;99.90;;;;;;2610727;54;20423;-74
2022/06/04 02:31:18;;;;;;;7.27;6.20;;;14.90;99.90;;;;;;2612262;47;20451;-78
2022/06/04 02:34:40;;;;;;;6.77;6.07;;;14.90;99.90;;;;;;2612026;54;21372;-78
2022/06/04 02:37:22;;;;;;;7.40;6.70;;;14.90;99.90;;;;;;2611353;54;20449;-77
2022/06/04 02:40:12;;;;;;;6.93;6.23;;;14.80;99.90;;;;;;2611687;54;20426;-77
2022/06/04 02:42:43;;;;;;;7.80;6.07;;;14.80;99.90;;;;;;2609533;54;20412;-74
2022/06/04 02:45:13;;;;;;;8.87;6.33;;;14.70;99.90;;;;;;2611389;54;20434;-74
2022/06/04 02:47:41;;;;;;;10.53;6.80;;;14.80;99.90;;;;;;2609047;54;22257;-77
2022/06/04 02:50:19;;;;;;;7.33;6.47;;;14.90;99.90;;;;;;2610791;54;20531;-77
2022/06/04 02:52:46;;;;;;;7.53;6.80;;;14.90;99.90;;;;;;2609946;54;20407;-78
2022/06/04 02:55:26;;;;;;;6.47;5.87;;;14.90;99.90;;;;;;2611179;39;21103;-78
2022/06/04 02:57:56;;;;;;;7.13;6.43;;;14.80;99.90;;;;;;2608927;47;20448;-77
2022/06/04 03:00:25;;;;;;;7.50;6.40;;;14.90;99.90;;;;;;2611423;54;20424;-76
2022/06/04 03:02:51;;;;;;;11.30;7.53;;;14.80;99.90;;;;;;2609690;54;20447;-76
2022/06/04 03:05:20;;;;;;;7.37;6.77;;;14.70;99.90;;;;;;2610119;54;20420;-76
2022/06/04 03:07:49;;;;;;;8.80;6.70;;;14.90;99.90;;;;;;2611473;54;20426;-78
2022/06/04 03:10:34;;;;;;;10.13;6.33;;;14.90;99.90;;;;;;2610267;46;20431;-77
2022/06/04 03:13:00;;;;;;;7.70;6.10;;;14.80;99.90;;;;;;2609809;31;20955;-73
2022/06/04 03:15:26;;;;;;;9.73;6.50;;;14.80;99.90;;;;;;2609851;54;20443;-73
2022/06/04 03:17:52;;;;;;;6.73;6.20;;;14.80;99.90;;;;;;2611017;54;20167;-73
2022/06/04 03:20:22;;;;;;;6.53;5.97;;;14.90;99.90;;;;;;2610385;54;20408;-74
2022/06/04 03:22:49;;;;;;;7.40;6.70;;;14.80;99.90;;;;;;2609902;54;20416;-74
2022/06/04 03:25:15;;;;;;;8.07;6.27;;;14.80;99.90;;;;;;2609123;54;20416;-73
2022/06/04 03:27:40;;;;;;;6.70;6.10;;;14.80;99.90;;;;;;2610591;54;20419;-81
2022/06/04 03:30:07;;;;;;;6.43;5.90;;;14.80;99.90;;;;;;2611756;39;20853;-82
2022/06/04 03:32:33;;;;;;;6.83;6.23;;;14.80;99.90;;;;;;2608186;54;21028;-73
2022/06/04 03:34:59;;;;;;;6.37;5.87;;;14.70;99.90;;;;;;2608384;39;21037;-73
2022/06/04 03:37:25;;;;;;;7.70;7.10;;;14.70;99.90;;;;;;2610179;54;20411;-73
2022/06/04 03:39:51;;;;;;;7.20;6.57;;;14.70;99.90;;;;;;2609559;54;20271;-74
2022/06/04 03:42:17;;;;;;;6.60;6.00;;;14.70;99.90;;;;;;2610085;54;20158;-77
2022/06/04 03:44:46;;;;;;;6.40;5.83;;;14.70;99.90;;;;;;2610906;54;20170;-77
2022/06/04 03:47:12;;;;;;;7.70;7.00;;;14.70;99.90;;;;;;2610560;54;20423;-76
2022/06/04 03:49:38;;;;;;;7.30;6.70;;;14.70;99.90;;;;;;2611316;54;20424;-75
2022/06/04 03:52:04;;;;;;;6.37;5.77;;;14.70;99.90;;;;;;2614486;47;20952;-81
2022/06/04 03:59:59;;;;;;;6.73;6.00;;;14.80;99.90;;;;;;2609165;54;21089;-75
2022/06/04 04:02:25;;;;;;;6.63;5.80;;;14.80;99.90;;;;;;2610100;54;20419;-76
2022/06/04 04:04:51;;;;;;;7.97;6.47;;;14.80;99.90;;;;;;2609729;54;20194;-76
2022/06/04 04:07:17;;;;;;;6.50;5.90;;;14.80;99.90;;;;;;2611421;54;21071;-75
2022/06/04 04:09:43;;;;;;;10.83;7.13;;;14.70;99.90;;;;;;2607326;54;20438;-74
2022/06/04 04:12:09;;;;;;;7.80;6.27;;;14.70;99.90;;;;;;2609357;47;20167;-78
2022/06/04 04:14:35;;;;;;;7.23;6.50;;;14.60;99.90;;;;;;2609434;54;20294;-77
2022/06/04 04:17:00;;;;;;;7.90;6.50;;;14.60;99.90;;;;;;2610912;54;20143;-74
2022/06/04 04:19:30;;;;;;;6.33;5.77;;;14.60;99.90;;;;;;2609892;54;20947;-74
2022/06/04 04:21:56;;;;;;;12.10;6.33;;;14.60;99.90;;;;;;2610008;54;20222;-73
2022/06/04 04:24:21;;;;;;;6.73;6.13;;;14.60;99.90;;;;;;2609555;54;20411;-73
2022/06/04 04:26:47;;;;;;;7.67;5.77;;;14.60;99.90;;;;;;2609841;51;20166;-74
2022/06/04 04:29:13;;;;;;;6.80;5.90;;;14.60;99.90;;;;;;2610717;31;20661;-74
2022/06/04 04:31:39;;;;;;;10.20;7.07;;;14.60;99.90;;;;;;2608323;54;20289;-75
2022/06/04 04:34:04;;;;;;;8.30;7.50;;;14.70;99.90;;;;;;2609979;47;20167;-74
2022/06/04 04:36:31;;;;;;;9.53;7.07;;;14.70;99.90;;;;;;2610467;54;20144;-74
2022/06/04 04:38:57;;;;;;;6.63;6.03;;;14.70;99.90;;;;;;2609556;54;20162;-74
2022/06/04 04:41:23;;;;;;;9.00;8.17;;;14.70;99.90;;;;;;2609061;54;20412;-78
2022/06/04 04:43:50;;;;;;;10.33;6.83;;;14.80;99.90;;;;;;2609437;54;20431;-76
2022/06/04 04:46:17;;;;;;;7.43;6.73;;;14.90;99.90;;;;;;2611710;54;20434;-74
2022/06/04 04:48:45;;;;;;;6.93;6.43;;;15.00;99.90;;;;;;2610441;54;20422;-75
2022/06/04 04:51:15;;;;;;;7.57;6.80;;;14.90;99.90;;;;;;2609727;54;20463;-73
2022/06/04 04:53:41;;;;;;;7.77;7.07;;;14.90;99.90;;;;;;2609862;54;20507;-74
2022/06/04 04:56:07;;;;;;;7.00;6.30;;;14.90;99.90;;;;;;2610829;39;20876;-76
2022/06/04 04:58:33;;;;;;;7.47;6.83;;;15.00;99.90;;;;;;2611987;47;20530;-77
2022/06/04 05:00:59;;;;;;;7.70;6.90;;;15.10;99.90;;;;;;2610905;54;20151;-78
2022/06/04 05:03:24;;;;;;;6.93;6.23;;;15.30;98.70;;;;;;2611973;47;20435;-78
2022/06/04 05:06:01;;;;;;;6.90;6.30;;;15.40;97.10;;;;;;2613538;54;20151;-78
2022/06/04 05:08:27;;;;;;;11.13;7.40;;;15.60;93.40;;;;;;2611871;54;20161;-74
2022/06/04 05:10:53;;;;;;;7.73;6.90;;;15.60;94.20;;;;;;2612025;54;20405;-74
2022/06/04 05:13:19;;;;;;;20.23;7.60;;;15.60;92.50;;;;;;2612354;39;20599;-74
2022/06/04 05:15:45;;;;;;;7.53;6.73;;;15.80;91.00;;;;;;2611739;39;20508;-74
2022/06/04 05:18:12;;;;;;;7.63;6.97;;;15.80;89.50;;;;;;2611433;47;20437;-76
2022/06/04 05:20:41;;;;;;;7.97;7.17;;;15.90;86.70;;;;;;2612041;54;20412;-77
2022/06/04 05:23:06;;;;;;;7.30;6.60;;;15.80;86.30;;;;;;2611761;54;20511;-77
2022/06/04 05:25:32;;;;;;;8.33;7.50;;;15.80;86.40;;;;;;2611772;54;20534;-79
2022/06/04 05:27:58;;;;;;;7.93;7.23;;;15.90;83.60;;;;;;2611037;54;20155;-75
2022/06/04 05:30:24;;;;;;;10.30;7.33;;;15.80;84.20;;;;;;2609660;54;20158;-75
2022/06/04 05:32:50;;;;;;;8.33;7.53;;;15.80;86.10;;;;;;2611692;54;20436;-78
2022/06/04 05:35:16;;;;;;;7.13;6.53;;;15.90;84.10;;;;;;2611471;54;20238;-79
2022/06/04 05:37:41;;;;;;;7.57;6.83;;;16.00;81.70;;;;;;2610899;54;20417;-77
2022/06/04 05:40:08;;;;;;;7.60;6.90;;;16.00;78.60;;;;;;2607532;54;20159;-75
2022/06/04 05:42:34;;;;;;;8.40;7.70;;;15.80;81.80;;;;;;2611625;39;20775;-84
2022/06/04 05:45:00;;;;;;;8.80;6.97;;;15.90;82.30;;;;;;2612518;54;20535;-84
2022/06/04 05:47:27;;;;;;;8.00;7.20;;;15.90;81.30;;;;;;2611780;39;20463;-76
2022/06/04 05:49:52;;;;;;;8.73;6.93;;;16.00;81.10;;;;;;2609365;54;20454;-77
2022/06/04 05:52:20;;;;;;;8.43;7.60;;;15.90;82.60;;;;;;2612198;54;21150;-83
2022/06/04 05:54:46;;;;;;;8.33;7.40;;;16.00;78.90;;;;;;2611285;54;20644;-83
2022/06/04 05:57:12;;;;;;;8.80;7.10;;;16.10;77.20;;;;;;2611598;39;20864;-76
2022/06/04 05:59:38;;;;;;;9.33;7.50;;;16.10;76.60;;;;;;2608797;54;20420;-76
2022/06/04 06:02:04;;;;;;;8.73;7.80;;;16.10;79.50;;;;;;2610249;54;20158;-79
2022/06/04 06:04:31;;;;;;;7.80;7.10;;;16.10;78.00;;;;;;2612282;39;20774;-79
2022/06/04 06:06:59;;;;;;;8.57;7.53;;;16.30;77.30;;;;;;2608984;54;20416;-78
2022/06/04 06:09:26;;;;;;;8.87;7.23;;;16.50;72.70;;;;;;2609444;54;20423;-78
2022/06/04 06:11:53;;;;;;;8.00;7.30;;;16.60;67.90;;;;;;2609018;54;20428;-76
2022/06/04 06:14:20;;;;;;;7.60;7.00;;;16.60;67.70;;;;;;2609016;54;20532;-76
2022/06/04 06:16:48;;;;;;;11.67;7.43;;;16.60;65.50;;;;;;2610454;54;20419;-78
2022/06/04 06:19:16;;;;;;;8.63;7.57;;;16.60;67.70;;;;;;2611484;54;20497;-79
2022/06/04 06:22:08;;;;;;;9.10;8.20;;;16.60;65.70;;;;;;2611882;39;20842;-76
2022/06/04 06:24:34;;;;;;;8.30;7.43;;;16.70;65.60;;;;;;2608213;54;20523;-76
2022/06/04 06:27:00;;;;;;;8.60;7.80;;;16.80;61.40;;;;;;2607703;54;20435;-79
2022/06/04 06:29:30;;;;;;;8.10;7.40;;;16.90;63.10;;;;;;2606037;54;20422;-78
2022/06/04 06:31:58;;;;;;;10.30;8.00;;;17.10;58.80;;;;;;2607694;39;20847;-74
2022/06/04 06:34:24;;;;;;;10.80;8.63;;;17.20;55.30;;;;;;2609908;39;20655;-75
2022/06/04 06:36:50;;;;;;;7.57;6.87;;;17.20;55.00;;;;;;2608694;47;21053;-75
2022/06/04 06:39:17;;;;;;;11.13;7.07;;;17.20;55.30;;;;;;2608763;54;20428;-75
2022/06/04 06:41:43;;;;;;;9.07;7.80;;;17.40;54.30;;;;;;2608818;47;20977;-83
2022/06/04 06:44:12;;;;;;;7.77;7.07;;;17.50;53.70;;;;;;2609069;39;20813;-83
2022/06/04 06:46:45;;;;;;;7.80;7.10;;;17.80;47.60;;;;;;2611447;47;20412;-79
2022/06/04 06:49:14;;;;;;;7.50;6.80;;;17.90;45.10;;;;;;2610080;47;20437;-78
2022/06/04 06:51:45;;;;;;;8.80;8.07;;;18.10;42.80;;;;;;2609279;54;20476;-79
2022/06/04 06:54:11;;;;;;;8.03;7.33;;;18.30;39.50;;;;;;2609170;54;20480;-77
2022/06/04 06:56:41;;;;;;;7.60;7.03;;;18.60;35.70;;;;;;2609307;54;20471;-79
2022/06/04 06:59:07;;;;;;;10.80;8.07;;;18.90;31.70;;;;;;2611345;54;20425;-79
2022/06/04 07:01:34;;;;;;;12.63;7.97;;;19.30;28.00;;;;;;2612084;39;21423;-81
2022/06/04 07:04:02;;;;;;;9.10;8.20;;;19.50;24.40;;;;;;2614309;54;20442;-80
2022/06/04 07:06:30;;;;;;;7.73;6.93;;;19.50;21.80;;;;;;2611768;54;20977;-77
2022/06/04 07:08:56;;;;;;;8.53;7.73;;;19.20;24.40;;;;;;2610912;54;21088;-78
2022/06/04 07:11:22;;;;;;;7.30;6.77;;;19.20;22.90;;;;;;2610893;47;20437;-79
2022/06/04 07:13:48;;;;;;;7.37;6.87;;;19.10;24.80;;;;;;2611125;54;20442;-77
2022/06/04 07:16:14;;;;;;;11.23;7.53;;;19.20;23.00;;;;;;2613219;54;20201;-74
2022/06/04 07:18:40;;;;;;;11.43;7.93;;;19.20;23.90;;;;;;2610800;54;20181;-75
2022/06/04 07:21:06;;;;;;;7.43;6.80;;;19.20;23.90;;;;;;2610430;54;20157;-76
2022/06/04 07:23:34;;;;;;;7.40;6.87;;;19.30;22.50;;;;;;2610134;54;20565;-76
2022/06/04 07:26:02;;;;;;;9.50;8.70;;;19.70;20.90;;;;;;2610204;54;21011;-75
2022/06/04 07:28:28;;;;;;;7.47;6.87;;;19.80;20.10;;;;;;2609802;54;20418;-75
2022/06/04 07:30:56;;;;;;;8.70;7.10;;;19.70;19.90;;;;;;2609413;54;20418;-74
2022/06/04 07:33:22;;;;;;;8.63;7.93;;;19.60;19.80;;;;;;2610553;39;20570;-75
2022/06/04 07:35:50;;;;;;;8.90;8.10;;;19.30;21.10;;;;;;2609134;39;20771;-74
2022/06/04 07:38:16;;;;;;;7.10;6.47;;;19.20;21.90;;;;;;2610289;54;20399;-80
2022/06/04 07:40:43;;;;;;;7.50;6.80;;;19.10;24.00;;;;;;2611806;54;20418;-80
2022/06/04 07:43:10;;;;;;;7.50;6.80;;;19.00;23.00;;;;;;2610858;47;20528;-75
2022/06/04 07:45:37;;;;;;;8.07;7.30;;;18.90;24.70;;;;;;2610073;54;20419;-76
2022/06/04 07:48:03;;;;;;;8.50;7.70;;;19.00;24.80;;;;;;2608344;39;20790;-75
2022/06/04 07:50:30;;;;;;;8.20;7.50;;;19.20;23.30;;;;;;2608403;54;20427;-76
2022/06/04 07:52:57;;;;;;;9.10;8.20;;;19.30;22.00;;;;;;2610943;54;20419;-75
2022/06/04 07:55:23;;;;;;;8.10;7.30;;;19.20;23.40;;;;;;2611354;47;20434;-75
2022/06/04 07:57:49;;;;;;;8.93;8.00;;;19.30;21.70;;;;;;2616218;39;20974;-82
2022/06/04 08:00:15;;;;;;;9.27;8.33;;;19.30;23.50;;;;;;2614089;39;20659;-83
2022/06/04 08:02:45;;;;;;;11.70;8.07;;;19.30;22.50;;;;;;2610947;54;20165;-73
2022/06/04 08:05:12;;;;;;;9.30;8.50;;;19.50;21.60;;;;;;2609414;54;20412;-74
2022/06/04 08:07:39;;;;;;;8.50;7.70;;;19.50;20.60;;;;;;2611069;54;21076;-75
2022/06/04 08:10:06;;;;;;;8.47;7.77;;;19.50;19.90;;;;;;2609378;54;20407;-74
2022/06/04 08:12:46;;;;;;;8.73;7.93;;;19.60;20.40;;;;;;2610984;54;20410;-73
2022/06/04 08:15:14;;;;;;;9.53;8.70;;;19.70;20.60;;;;;;2612832;39;20802;-75
2022/06/04 08:17:40;;;;;;;9.60;8.80;;;20.00;19.70;;;;;;2610527;47;20431;-76
2022/06/04 08:20:07;;;;;;;9.10;8.20;;;20.30;17.10;;;;;;2609765;46;20441;-76
2022/06/04 08:22:33;;;;;;;9.97;9.07;;;20.50;15.00;;;;;;2609730;54;20433;-75
2022/06/04 08:24:59;;;;;;;9.23;8.43;;;20.80;14.20;;;;;;2608092;54;20423;-75
2022/06/04 08:27:25;;;;;;;10.67;9.70;;;21.00;12.00;;;;;;2607885;47;20435;-75
2022/06/04 08:29:50;;;;;;;8.70;7.80;;;21.10;10.40;;;;;;2610669;39;20950;-75
2022/06/04 08:32:16;;;;;;;8.70;8.00;;;21.10;10.80;;;;;;2611275;47;20876;-73
2022/06/04 08:34:42;;;;;;;9.10;8.30;;;21.30;9.80;;;;;;2611641;54;20202;-74
2022/06/04 08:37:08;;;;;;;8.87;8.17;;;21.40;9.80;;;;;;2614161;54;20259;-80
2022/06/04 08:39:34;;;;;;;10.33;8.97;;;21.50;9.70;;;;;;2612266;47;20506;-81
2022/06/04 08:42:07;;;;;;;8.23;7.60;;;21.50;9.30;;;;;;2612304;47;20175;-79
2022/06/04 08:44:47;;;;;;;9.33;8.53;;;21.80;9.40;;;;;;2611257;54;20448;-78
2022/06/04 08:47:22;;;;;;;8.73;8.03;;;21.80;8.00;;;;;;2612069;39;20939;-77
2022/06/04 08:50:07;;;;;;;8.27;7.50;;;21.70;7.80;;;;;;2611449;46;20461;-76
2022/06/04 08:52:38;;;;;;;7.60;6.90;;;21.40;9.30;;;;;;2611510;39;20865;-78
2022/06/04 08:58:34;;;;;;;9.17;8.37;;;21.50;9.70;;;;;;2612318;47;20467;-80
2022/06/04 09:01:10;;;;;;;9.50;8.50;;;21.30;9.50;;;;;;2612257;47;21021;-77
2022/06/04 09:03:57;;;;;;;9.30;8.43;;;21.40;9.60;;;;;;2610186;54;20741;-77
2022/06/04 09:06:52;;;;;;;8.80;8.00;;;21.50;8.30;;;;;;2609740;39;20887;-76
2022/06/04 09:09:37;;;;;;;8.57;7.40;;;21.50;7.70;;;;;;2610074;54;20423;-76
2022/06/04 09:12:22;;;;;;;10.10;9.10;;;21.60;8.10;;;;;;2610274;46;20429;-76
2022/06/04 09:15:03;;;;;;;8.97;8.00;;;21.80;7.90;;;;;;2610155;54;20463;-76
2022/06/04 09:17:37;;;;;;;8.93;8.10;;;21.90;8.30;;;;;;2611489;54;20422;-82
2022/06/04 09:20:16;;;;;;;9.43;8.60;;;22.20;6.50;;;;;;2611690;54;20424;-82
2022/06/04 09:22:44;;;;;;;10.27;8.37;;;22.20;6.20;;;;;;2611434;39;20885;-79
2022/06/04 09:25:15;;;;;;;10.97;8.30;;;22.10;6.70;;;;;;2611555;46;20435;-77
2022/06/04 09:28:00;;;;;;;8.97;8.27;;;21.90;6.20;;;;;;2611670;54;20430;-78
2022/06/04 09:30:36;;;;;;;9.03;8.20;;;21.60;7.10;;;;;;2611815;54;20974;-78
2022/06/04 09:33:26;;;;;;;8.00;7.40;;;21.70;7.60;;;;;;2612016;46;20849;-79
2022/06/04 09:35:55;;;;;;;9.37;8.67;;;21.70;8.70;;;;;;2612781;54;20419;-80
2022/06/04 09:38:26;;;;;;;9.33;8.53;;;21.70;8.30;;;;;;2613069;39;20899;-81
2022/06/04 09:41:19;;;;;;;8.53;7.90;;;21.40;7.60;;;;;;2612596;54;20423;-80
2022/06/04 09:43:46;;;;;;;10.70;9.80;;;21.40;8.90;;;;;;2613161;54;20430;-80
2022/06/04 09:46:14;;;;;;;9.03;8.40;;;21.50;7.90;;;;;;2614306;54;21045;-75
2022/06/04 09:48:50;;;;;;;9.30;8.60;;;21.50;9.00;;;;;;2612002;47;20458;-74
2022/06/04 09:51:22;;;;;;;9.07;8.30;;;21.60;6.80;;;;;;2610645;54;20407;-79
2022/06/04 09:54:02;;;;;;;9.30;8.50;;;21.50;7.90;;;;;;2614832;54;20408;-79
2022/06/04 09:56:42;;;;;;;10.13;9.17;;;21.50;7.40;;;;;;2612241;54;20412;-81
2022/06/04 09:59:29;;;;;;;10.07;9.10;;;21.70;8.50;;;;;;2615224;39;20854;-81
2022/06/04 10:02:20;;;;;;;8.57;7.80;;;21.80;7.80;;;;;;2612929;54;20465;-78
2022/06/04 10:04:57;;;;;;;8.87;8.20;;;22.00;6.70;;;;;;2611297;46;20440;-79
2022/06/04 10:07:35;;;;;;;9.07;8.20;;;21.80;7.40;;;;;;2612291;47;20423;-75
2022/06/04 10:10:16;;;;;;;9.27;8.37;;;21.70;7.20;;;;;;2611737;54;20429;-74
2022/06/04 10:15:39;;;;;;;9.70;8.87;;;22.20;7.20;;;;;;2610604;47;20423;-80
2022/06/04 10:18:18;;;;;;;9.03;8.37;;;22.30;5.70;;;;;;2610179;54;20399;-79
2022/06/04 10:20:56;;;;;;;8.90;8.20;;;22.40;6.10;;;;;;2611919;39;20816;-80
2022/06/04 10:23:22;;;;;;;9.07;8.30;;;22.90;3.70;;;;;;2612299;54;20423;-79
2022/06/04 10:26:42;;;;;;;9.47;8.53;;;22.90;3.80;;;;;;2612700;54;20865;-78
2022/06/04 10:29:26;;;;;;;10.20;9.07;;;23.40;3.00;;;;;;2610632;54;20420;-82
2022/06/04 10:32:13;;;;;;;9.53;8.63;;;23.50;1.90;;;;;;2610963;54;21747;-79
2022/06/04 10:34:57;;;;;;;10.80;8.63;;;23.40;3.00;;;;;;2610684;39;20840;-79
2022/06/04 10:37:53;;;;;;;9.30;8.43;;;23.70;1.30;;;;;;2609978;47;20936;-76
2022/06/04 10:40:39;;;;;;;10.30;9.60;;;23.70;1.50;;;;;;2609796;46;20435;-79
2022/06/04 10:43:23;;;;;;;10.63;8.53;;;23.60;1.50;;;;;;2612408;31;21055;-80
2022/06/04 10:45:54;;;;;;;10.00;9.17;;;23.70;1.70;;;;;;2613253;54;20444;-80
2022/06/04 10:48:54;;;;;;;9.30;8.60;;;24.10;1.00;;;;;;2611452;39;20880;-79
2022/06/04 10:51:50;;;;;;;9.93;9.33;;;24.40;1.00;;;;;;2610007;54;20406;-79
2022/06/04 10:54:21;;;;;;;8.83;8.13;;;24.60;1.00;;;;;;2610888;54;20432;-79
2022/06/04 10:57:08;;;;;;;9.47;8.57;;;24.40;1.00;;;;;;2610042;47;20590;-78
2022/06/04 10:59:41;;;;;;;8.77;8.07;;;24.40;1.00;;;;;;2609590;54;20423;-78
2022/06/04 11:02:44;;;;;;;9.07;8.17;;;24.20;1.00;;;;;;2611337;54;20414;-82
2022/06/04 11:05:39;;;;;;;9.50;8.60;;;24.40;1.00;;;;;;2612550;54;20417;-82
2022/06/04 11:08:20;;;;;;;10.17;9.17;;;24.60;1.00;;;;;;2610447;54;20427;-75
2022/06/04 11:11:30;;;;;;;8.67;7.97;;;25.00;1.00;;;;;;2610470;54;20418;-74
2022/06/04 11:14:18;;;;;;;10.43;9.57;;;25.20;1.00;;;;;;2611617;54;20979;-80
2022/06/04 11:16:52;;;;;;;10.40;9.60;;;25.40;1.00;;;;;;2612838;54;21040;-79
2022/06/04 11:19:25;;;;;;;11.43;10.47;;;25.50;1.00;;;;;;2612248;54;20443;-80
2022/06/04 11:22:04;;;;;;;12.40;11.20;;;25.70;1.00;;;;;;2611822;39;20802;-87
2022/06/04 11:24:44;;;;;;;10.10;9.30;;;25.80;1.00;;;;;;2613002;54;20433;-84
2022/06/04 11:27:25;;;;;;;10.77;9.77;;;25.80;1.00;;;;;;2612909;54;20430;-78
2022/06/04 11:29:53;;;;;;;11.27;10.20;;;26.00;1.00;;;;;;2611873;47;20443;-81
2022/06/04 11:32:38;;;;;;;10.00;9.20;;;26.00;1.00;;;;;;2611784;39;20903;-76
2022/06/04 11:35:03;;;;;;;11.20;10.20;;;26.70;1.00;;;;;;2611908;46;20471;-75
2022/06/04 11:37:35;;;;;;;10.30;9.60;;;27.20;1.00;;;;;;2610922;39;21004;-74
2022/06/04 11:40:32;;;;;;;11.20;10.40;;;27.20;1.00;;;;;;2610989;54;20189;-75
2022/06/04 11:43:01;;;;;;;10.90;10.00;;;27.10;1.00;;;;;;2611763;47;20423;-80
2022/06/04 11:45:36;;;;;;;10.87;9.80;;;27.00;1.00;;;;;;2612137;39;20546;-79
2022/06/04 11:48:14;;;;;;;10.60;9.60;;;27.20;1.00;;;;;;2612562;54;20399;-81
2022/06/04 11:50:57;;;;;;;10.83;9.83;;;27.20;1.00;;;;;;2612289;54;20416;-81
2022/06/04 11:53:41;;;;;;;10.10;9.40;;;27.00;1.00;;;;;;2612748;54;20455;-79
2022/06/04 11:56:21;;;;;;;10.90;10.10;;;26.60;1.00;;;;;;2612510;54;20451;-75
2022/06/04 11:59:05;;;;;;;11.30;10.50;;;26.50;1.00;;;;;;2609641;54;20575;-75
2022/06/04 12:01:48;;;;;;;9.70;8.90;;;26.50;1.00;;;;;;2610959;54;20428;-81
2022/06/04 12:04:25;;;;;;;11.43;10.40;;;26.30;1.00;;;;;;2612053;54;20428;-80
2022/06/04 12:07:01;;;;;;;9.83;9.13;;;26.00;1.00;;;;;;2611755;54;20450;-82
2022/06/04 12:09:45;;;;;;;10.10;9.30;;;25.90;1.00;;;;;;2613526;54;20416;-82
2022/06/04 12:12:18;;;;;;;10.80;10.00;;;25.60;1.00;;;;;;2612787;47;20467;-76
2022/06/04 12:14:56;;;;;;;9.57;8.83;;;25.50;1.00;;;;;;2611871;39;20924;-76
2022/06/04 12:17:39;;;;;;;14.30;9.00;;;25.40;1.00;;;;;;2611617;54;20441;-81
2022/06/04 12:26:26;;;;;;;10.27;9.50;;;25.80;1.00;;;;;;2614750;54;20408;-76
2022/06/04 12:28:54;;;;;;;11.37;10.30;;;26.10;1.00;;;;;;2611647;39;20828;-75
2022/06/04 12:31:34;;;;;;;10.17;9.47;;;26.10;1.00;;;;;;2611200;54;20417;-75
2022/06/04 12:34:03;;;;;;;9.77;8.97;;;26.50;1.00;;;;;;2611065;54;20426;-75
2022/06/04 12:36:33;;;;;;;9.67;8.77;;;26.80;1.00;;;;;;2613941;47;20446;-84
2022/06/04 12:39:20;;;;;;;9.73;8.93;;;27.00;1.00;;;;;;2614481;39;20830;-80
2022/06/04 12:41:50;;;;;;;11.23;10.33;;;27.00;1.00;;;;;;2615902;54;20432;-79
2022/06/04 12:44:31;;;;;;;9.43;8.77;;;27.10;1.00;;;;;;2616005;54;20902;-79
2022/06/04 12:47:19;;;;;;;9.00;8.10;;;27.20;1.00;;;;;;2615366;54;20446;-80
2022/06/04 12:49:58;;;;;;;9.57;8.87;;;27.30;1.00;;;;;;2613629;54;20487;-82
2022/06/04 12:52:27;;;;;;;9.93;9.27;;;27.00;1.00;;;;;;2613700;54;20416;-80
2022/06/04 12:55:20;;;;;;;9.53;8.70;;;26.90;1.00;;;;;;2613601;39;20768;-79
2022/06/04 12:57:57;;;;;;;10.27;9.47;;;27.20;1.00;;;;;;2613140;54;20451;-83
2022/06/04 13:00:34;;;;;;;9.50;8.70;;;27.50;1.00;;;;;;2613157;54;20418;-82
2022/06/04 13:03:08;;;;;;;9.50;8.80;;;27.50;1.00;;;;;;2611466;54;20412;-78
2022/06/04 13:05:54;;;;;;;9.03;8.33;;;27.30;1.00;;;;;;2611627;54;20468;-78
2022/06/04 13:08:20;;;;;;;8.70;8.10;;;27.30;1.00;;;;;;2611785;54;20404;-78
2022/06/04 13:10:54;;;;;;;8.07;7.57;;;27.20;1.00;;;;;;2612453;54;20440;-79
2022/06/04 13:14:06;;;;;;;8.20;7.60;;;27.40;1.00;;;;;;2612143;54;20148;-79
2022/06/04 13:16:34;;;;;;;7.20;6.70;;;27.90;1.00;;;;;;2613066;39;20880;-83
2022/06/04 13:19:00;;;;;;;14.13;7.70;;;28.30;1.00;;;;;;2612158;54;20413;-84
2022/06/04 13:21:28;;;;;;;10.20;8.23;;;28.30;1.00;;;;;;2613344;39;20950;-76
2022/06/04 13:24:04;;;;;;;9.13;8.50;;;28.50;1.00;;;;;;2612158;39;20586;-76
2022/06/04 13:26:42;;;;;;;7.83;7.23;;;28.80;1.00;;;;;;2612981;46;20452;-81
2022/06/04 13:29:26;;;;;;;8.63;7.90;;;28.70;1.00;;;;;;2613929;54;20413;-81
2022/06/04 13:31:58;;;;;;;7.13;6.70;;;28.80;1.00;;;;;;2613601;54;20445;-77
2022/06/04 13:34:27;;;;;;;8.20;7.70;;;28.30;1.00;;;;;;2611345;54;20426;-77
2022/06/04 13:37:03;;;;;;;8.10;7.30;;;28.30;1.00;;;;;;2612603;54;21052;-81
2022/06/04 13:39:31;;;;;;;7.87;7.07;;;28.30;1.00;;;;;;2613652;54;20413;-82
2022/06/04 13:42:09;;;;;;;9.97;7.47;;;28.40;1.00;;;;;;2613878;47;20534;-77
2022/06/04 13:44:55;;;;;;;7.50;6.90;;;28.50;1.00;;;;;;2611738;54;20503;-75